createdAt,value
2024-04-18T00:01:16.534Z,9.85
2024-04-18T00:03:45.235Z,9.81
2024-04-18T00:06:12.857Z,9.75
2024-04-18T00:08:40.275Z,9.66
2024-04-18T00:11:26.233Z,9.64
2024-04-18T00:13:54.063Z,9.65
2024-04-18T00:16:36.238Z,9.62
2024-04-18T00:19:16.513Z,9.59
2024-04-18T00:21:59.546Z,9.57
2024-04-18T00:24:30.332Z,9.53
2024-04-18T00:26:57.965Z,9.52
2024-04-18T00:29:36.607Z,9.58
2024-04-18T00:32:11.684Z,9.64
2024-04-18T00:34:39.129Z,9.66
2024-04-18T00:37:06.490Z,9.63
2024-04-18T00:39:52.721Z,9.62
2024-04-18T00:42:39.639Z,9.60
2024-04-18T00:45:08.066Z,9.57
2024-04-18T00:47:46.518Z,9.61
2024-04-18T00:50:13.955Z,9.68
2024-04-18T00:52:41.621Z,9.69
2024-04-18T00:55:09.100Z,9.69
2024-04-18T00:57:36.610Z,9.69
2024-04-18T01:00:07.253Z,9.69
2024-04-18T01:02:52.800Z,9.70
2024-04-18T01:05:33.255Z,9.74
2024-04-18T01:08:00.971Z,9.79
2024-04-18T01:10:48.226Z,9.81
2024-04-18T01:13:15.569Z,9.80
2024-04-18T01:16:02.078Z,9.77
2024-04-18T01:18:29.499Z,9.74
2024-04-18T01:21:15.216Z,9.71
2024-04-18T01:23:42.722Z,9.74
2024-04-18T01:26:13.439Z,9.76
2024-04-18T01:28:40.784Z,9.75
2024-04-18T01:31:08.216Z,9.73
2024-04-18T01:33:35.775Z,9.71
2024-04-18T01:36:03.302Z,9.70
2024-04-18T01:38:51.136Z,9.72
2024-04-18T01:41:31.181Z,9.71
2024-04-18T01:44:01.255Z,9.66
2024-04-18T01:46:47.631Z,9.60
2024-04-18T01:49:30.356Z,9.55
2024-04-18T01:51:57.800Z,9.52
2024-04-18T01:54:43.194Z,9.56
2024-04-18T01:57:10.741Z,9.58
2024-04-18T01:59:56.735Z,9.55
2024-04-18T02:02:27.378Z,9.51
2024-04-18T02:05:11.004Z,9.45
2024-04-18T02:07:44.754Z,9.37
2024-04-18T02:10:12.173Z,9.36
2024-04-18T02:12:58.395Z,9.39
2024-04-18T02:15:44.785Z,9.41
2024-04-18T02:18:15.462Z,9.39
2024-04-18T02:20:43.011Z,9.34
2024-04-18T02:23:25.707Z,9.30
2024-04-18T02:25:53.307Z,9.32
2024-04-18T02:28:20.668Z,9.37
2024-04-18T02:30:48.172Z,9.37
2024-04-18T02:33:16.504Z,9.35
2024-04-18T02:35:47.845Z,9.32
2024-04-18T02:38:34.338Z,9.27
2024-04-18T02:41:06.211Z,9.25
2024-04-18T02:43:50.950Z,9.31
2024-04-18T02:46:18.595Z,9.32
2024-04-18T02:49:04.570Z,9.29
2024-04-18T02:51:32.159Z,9.26
2024-04-18T02:54:14.867Z,9.24
2024-04-18T02:56:42.393Z,9.21
2024-04-18T02:59:12.824Z,9.22
2024-04-18T03:01:50.050Z,9.21
2024-04-18T03:04:17.865Z,9.15
2024-04-18T03:06:48.595Z,9.11
2024-04-18T03:09:17.060Z,9.11
2024-04-18T03:11:56.784Z,9.06
2024-04-18T03:14:43.050Z,9.18
2024-04-18T03:17:10.442Z,9.24
2024-04-18T03:19:56.643Z,9.22
2024-04-18T03:22:27.716Z,9.19
2024-04-18T03:25:01.263Z,9.18
2024-04-18T03:27:31.980Z,9.17
2024-04-18T03:29:59.473Z,9.19
2024-04-18T03:32:39.488Z,9.23
2024-04-18T03:35:08.603Z,9.22
2024-04-18T03:37:38.776Z,9.17
2024-04-18T03:40:25.516Z,9.10
2024-04-18T03:43:02.200Z,9.03
2024-04-18T03:45:29.639Z,9.06
2024-04-18T03:48:17.141Z,9.09
2024-04-18T03:50:44.790Z,9.06
2024-04-18T03:53:21.490Z,9.02
2024-04-18T03:56:09.412Z,8.97
2024-04-18T03:58:36.734Z,8.93
2024-04-18T04:01:04.405Z,8.94
2024-04-18T04:03:32.025Z,8.94
2024-04-18T04:05:59.376Z,8.92
2024-04-18T04:08:26.720Z,8.90
2024-04-18T04:11:12.457Z,8.89
2024-04-18T04:13:40.362Z,8.93
2024-04-18T04:16:20.501Z,8.98
2024-04-18T04:18:56.048Z,8.99
2024-04-18T04:21:42.727Z,8.97
2024-04-18T04:24:10.071Z,8.93
2024-04-18T04:26:50.876Z,8.90
2024-04-18T04:29:18.343Z,8.92
2024-04-18T04:31:45.720Z,8.95
2024-04-18T04:34:13.580Z,8.94
2024-04-18T04:36:40.989Z,8.92
2024-04-18T04:39:08.474Z,8.93
2024-04-18T04:41:40.518Z,8.99
2024-04-18T04:44:08.019Z,9.06
2024-04-18T04:46:51.690Z,9.08
2024-04-18T04:49:22.695Z,9.08
2024-04-18T04:52:07.280Z,9.10
2024-04-18T04:54:44.960Z,9.11
2024-04-18T04:57:12.423Z,9.16
2024-04-18T04:59:39.939Z,9.19
2024-04-18T05:02:07.575Z,9.16
2024-04-18T05:04:50.927Z,9.17
2024-04-18T05:07:38.520Z,9.20
2024-04-18T05:10:24.755Z,9.29
2024-04-18T05:12:52.610Z,9.34
2024-04-18T05:15:35.676Z,9.34
2024-04-18T05:18:04.207Z,9.34
2024-04-18T05:20:31.707Z,9.36
2024-04-18T05:22:59.402Z,9.44
2024-04-18T05:25:26.937Z,9.49
2024-04-18T05:28:21.371Z,9.47
2024-04-18T05:31:05.908Z,9.42
2024-04-18T05:33:33.835Z,9.41
2024-04-18T05:36:01.707Z,9.46
2024-04-18T05:40:36.971Z,9.47
2024-04-18T05:43:05.682Z,9.40
2024-04-18T05:45:48.795Z,9.33
2024-04-18T05:48:16.237Z,9.34
2024-04-18T05:50:43.970Z,9.39
2024-04-18T05:53:23.729Z,9.42
2024-04-18T05:55:53.895Z,9.41
2024-04-18T05:58:21.555Z,9.38
2024-04-18T06:00:55.060Z,9.34
2024-04-18T06:03:23.168Z,9.37
2024-04-18T06:05:50.582Z,9.42
2024-04-18T06:08:18.151Z,9.42
2024-04-18T06:10:46.210Z,9.40
2024-04-18T06:13:20.794Z,9.37
2024-04-18T06:15:48.643Z,9.42
2024-04-18T06:18:16.598Z,9.47
2024-04-18T06:20:47.926Z,9.46
2024-04-18T06:23:15.553Z,9.46
2024-04-18T06:25:43.222Z,9.45
2024-04-18T06:28:12.224Z,9.49
2024-04-18T06:30:40.366Z,9.53
2024-04-18T06:33:11.780Z,9.53
2024-04-18T06:35:39.418Z,9.48
2024-04-18T06:38:07.917Z,9.43
2024-04-18T06:40:35.510Z,9.39
2024-04-18T06:43:03.004Z,9.43
2024-04-18T06:45:30.519Z,9.45
2024-04-18T06:47:58.120Z,9.44
2024-04-18T06:50:27.644Z,9.43
2024-04-18T06:52:55.293Z,9.41
2024-04-18T06:55:23.967Z,9.45
2024-04-18T06:57:51.646Z,9.48
2024-04-18T07:00:19.617Z,9.47
2024-04-18T07:02:47.528Z,9.45
2024-04-18T07:05:34.075Z,9.46
2024-04-18T07:08:20.182Z,9.50
2024-04-18T07:10:47.736Z,9.51
2024-04-18T07:13:32.754Z,9.47
2024-04-18T07:16:04.546Z,9.41
2024-04-18T07:19:07.476Z,9.38
2024-04-18T07:21:54.819Z,9.42
2024-04-18T07:24:24.689Z,9.43
2024-04-18T07:26:54.115Z,9.39
2024-04-18T07:29:22.910Z,9.33
2024-04-18T07:31:50.520Z,9.31
2024-04-18T07:34:18.113Z,9.37
2024-04-18T07:36:48.824Z,9.46
2024-04-18T07:39:16.693Z,9.49
2024-04-18T07:41:44.279Z,9.48
2024-04-18T07:44:13.291Z,9.47
2024-04-18T07:46:40.969Z,9.49
2024-04-18T07:49:09.640Z,9.51
2024-04-18T07:51:38.348Z,9.51
2024-04-18T07:54:07.120Z,9.48
2024-04-18T07:56:34.888Z,9.46
2024-04-18T07:59:03.607Z,9.50
2024-04-18T08:01:32.636Z,9.52
2024-04-18T08:04:17.660Z,9.49
2024-04-18T08:06:51.604Z,9.44
2024-04-18T08:09:23.902Z,9.38
2024-04-18T08:12:18.185Z,9.37
2024-04-18T08:14:43.751Z,9.41
2024-04-18T08:17:13.922Z,9.44
2024-04-18T08:19:41.600Z,9.43
2024-04-18T08:22:09.037Z,9.45
2024-04-18T08:24:37.103Z,9.49
2024-04-18T08:27:08.081Z,9.53
2024-04-18T08:29:36.131Z,9.51
2024-04-18T08:32:03.852Z,9.49
2024-04-18T08:34:32.866Z,9.45
2024-04-18T08:37:01.714Z,9.42
2024-04-18T08:39:29.268Z,9.42
2024-04-18T08:41:59.845Z,9.40
2024-04-18T08:44:27.437Z,9.35
2024-04-18T08:46:54.871Z,9.32
2024-04-18T08:49:22.447Z,9.35
2024-04-18T08:51:50.332Z,9.37
2024-04-18T08:54:18.330Z,9.32
2024-04-18T08:56:48.001Z,9.23
2024-04-18T08:59:15.560Z,9.24
2024-04-18T09:01:43.041Z,9.28
2024-04-18T09:04:10.607Z,9.32
2024-04-18T09:06:38.103Z,9.33
2024-04-18T09:09:10.104Z,9.32
2024-04-18T09:11:37.724Z,9.33
2024-04-18T09:14:09.424Z,9.39
2024-04-18T09:16:38.939Z,9.42
2024-04-18T09:19:07.622Z,9.37
2024-04-18T09:21:36.482Z,9.34
2024-04-18T09:24:06.583Z,9.31
2024-04-18T09:26:34.279Z,9.34
2024-04-18T09:29:01.924Z,9.36
2024-04-18T09:31:37.672Z,9.32
2024-04-18T09:34:11.251Z,9.26
2024-04-18T09:36:40.253Z,9.17
2024-04-18T09:39:08.023Z,9.12
2024-04-18T09:41:38.049Z,9.11
2024-04-18T09:44:05.775Z,9.05
2024-04-18T09:46:33.424Z,8.97
2024-04-18T09:49:01.282Z,8.93
2024-04-18T09:51:29.237Z,8.95
2024-04-18T09:53:57.239Z,8.97
2024-04-18T09:56:27.792Z,8.93
2024-04-18T09:58:55.643Z,8.86
2024-04-18T10:01:23.082Z,8.79
2024-04-18T10:03:51.031Z,8.75
2024-04-18T10:06:19.464Z,8.76
2024-04-18T10:08:51.766Z,8.70
2024-04-18T10:11:20.578Z,8.64
2024-04-18T10:13:48.231Z,8.60
2024-04-18T10:16:16.577Z,8.58
2024-04-18T10:18:47.761Z,8.62
2024-04-18T10:21:32.193Z,8.62
2024-04-18T10:24:06.754Z,8.57
2024-04-18T10:26:36.032Z,8.54
2024-04-18T10:29:03.588Z,8.53
2024-04-18T10:31:31.218Z,8.59
2024-04-18T10:33:58.799Z,8.65
2024-04-18T10:36:27.315Z,8.66
2024-04-18T10:38:55.031Z,8.62
2024-04-18T10:41:23.305Z,8.57
2024-04-18T10:43:51.192Z,8.60
2024-04-18T10:46:19.488Z,8.65
2024-04-18T10:48:52.248Z,8.66
2024-04-18T10:51:19.998Z,8.65
2024-04-18T10:53:47.607Z,8.63
2024-04-18T10:56:15.900Z,8.62
2024-04-18T10:58:43.369Z,8.62
2024-04-18T11:01:11.064Z,8.60
2024-04-18T11:03:38.740Z,8.56
2024-04-18T11:06:06.374Z,8.52
2024-04-18T11:08:35.396Z,8.49
2024-04-18T11:11:04.593Z,8.54
2024-04-18T11:13:32.309Z,8.53
2024-04-18T11:15:59.844Z,8.47
2024-04-18T11:18:27.894Z,8.39
2024-04-18T11:20:55.420Z,8.34
2024-04-18T11:23:32.628Z,8.39
2024-04-18T11:26:07.142Z,8.40
2024-04-18T11:28:35.227Z,8.35
2024-04-18T11:31:02.733Z,8.26
2024-04-18T11:33:30.327Z,8.28
2024-04-18T11:35:57.982Z,8.34
2024-04-18T11:38:25.653Z,8.35
2024-04-18T11:40:53.117Z,8.28
2024-04-18T11:43:20.588Z,8.21
2024-04-18T11:45:48.125Z,8.15
2024-04-18T11:48:15.755Z,8.15
2024-04-18T11:50:43.600Z,8.12
2024-04-18T11:53:10.972Z,8.09
2024-04-18T11:55:38.548Z,8.05
2024-04-18T11:58:24.762Z,8.05
2024-04-18T12:00:52.209Z,8.07
2024-04-18T12:03:40.511Z,8.03
2024-04-18T12:06:27.866Z,7.96
2024-04-18T12:08:56.662Z,7.91
2024-04-18T12:11:31.416Z,7.96
2024-04-18T12:14:12.510Z,8.06
2024-04-18T12:16:56.059Z,8.06
2024-04-18T12:19:42.677Z,8.02
2024-04-18T12:22:32.012Z,7.98
2024-04-18T12:25:18.286Z,8.04
2024-04-18T12:27:46.783Z,8.10
2024-04-18T12:30:33.746Z,8.09
2024-04-18T12:33:20.838Z,8.07
2024-04-18T12:35:49.213Z,8.07
2024-04-18T12:38:16.864Z,8.13
2024-04-18T12:40:45.008Z,8.19
2024-04-18T12:43:16.073Z,8.21
2024-04-18T12:46:06.328Z,8.21
2024-04-18T12:48:52.310Z,8.16
2024-04-18T12:51:20.031Z,8.20
2024-04-18T12:53:47.776Z,8.24
2024-04-18T12:56:15.448Z,8.21
2024-04-18T12:58:43.408Z,8.17
2024-04-18T13:01:11.593Z,8.15
2024-04-18T13:03:42.783Z,8.19
2024-04-18T13:06:29.382Z,8.23
2024-04-18T13:08:57.997Z,8.16
2024-04-18T13:11:45.851Z,8.18
2024-04-18T13:14:13.352Z,8.16
2024-04-18T13:16:40.745Z,8.19
2024-04-18T13:19:11.724Z,8.24
2024-04-18T13:21:39.783Z,8.26
2024-04-18T13:24:11.774Z,8.34
2024-04-18T13:26:52.447Z,8.52
2024-04-18T13:29:20.529Z,8.67
2024-04-18T13:31:48.034Z,8.75
2024-04-18T13:34:21.805Z,8.79
2024-04-18T13:36:49.564Z,8.79
2024-04-18T13:39:17.083Z,8.73
2024-04-18T13:42:04.742Z,8.65
2024-04-18T13:44:53.051Z,8.52
2024-04-18T13:47:24.487Z,8.38
2024-04-18T13:49:52.464Z,8.25
2024-04-18T13:52:20.138Z,8.20
2024-04-18T13:55:05.716Z,8.19
2024-04-18T13:57:33.577Z,8.15
2024-04-18T14:00:20.174Z,8.07
2024-04-18T14:03:06.598Z,8.00
2024-04-18T14:05:34.342Z,8.01
2024-04-18T14:08:03.759Z,8.01
2024-04-18T14:10:31.577Z,7.95
2024-04-18T14:13:37.472Z,7.89
2024-04-18T14:16:43.649Z,7.87
2024-04-18T14:19:31.066Z,7.85
2024-04-18T14:22:06.533Z,7.79
2024-04-18T14:24:34.702Z,7.72
2024-04-18T14:27:02.925Z,7.69
2024-04-18T14:29:30.595Z,7.74
2024-04-18T14:32:01.019Z,7.81
2024-04-18T14:34:48.358Z,7.81
2024-04-18T14:37:16.899Z,7.76
2024-04-18T14:39:44.649Z,7.74
2024-04-18T14:42:12.444Z,7.77
2024-04-18T14:44:40.278Z,7.75
2024-04-18T14:47:15.503Z,7.69
2024-04-18T14:50:02.290Z,7.65
2024-04-18T14:52:35.362Z,7.65
2024-04-18T14:55:23.392Z,7.72
2024-04-18T14:57:51.436Z,7.73
2024-04-18T15:00:19.377Z,7.66
2024-04-18T15:02:47.304Z,7.60
2024-04-18T15:05:58.141Z,7.60
2024-04-18T15:08:39.051Z,7.66
2024-04-18T15:11:23.161Z,7.70
2024-04-18T15:14:04.454Z,7.67
2024-04-18T15:16:32.053Z,7.65
2024-04-18T15:18:59.597Z,7.62
2024-04-18T15:21:29.551Z,7.61
2024-04-18T15:24:12.678Z,7.60
2024-04-18T15:26:59.871Z,7.58
2024-04-18T15:29:27.417Z,7.59
2024-04-18T15:32:13.480Z,7.56
2024-04-18T15:34:47.747Z,7.56
2024-04-18T15:37:34.430Z,7.51
2024-04-18T15:40:01.889Z,7.46
2024-04-18T15:42:29.481Z,7.38
2024-04-18T15:44:56.935Z,7.32
2024-04-18T15:47:31.392Z,7.34
2024-04-18T15:50:18.112Z,7.37
2024-04-18T15:52:46.068Z,7.33
2024-04-18T15:55:30.311Z,7.26
2024-04-18T15:58:18.395Z,7.23
2024-04-18T16:00:45.969Z,7.31
2024-04-18T16:03:32.793Z,7.36
2024-04-18T16:06:22.016Z,7.34
2024-04-18T16:09:08.105Z,7.32
2024-04-18T16:11:41.780Z,7.29
2024-04-18T16:14:28.309Z,7.30
2024-04-18T16:16:57.142Z,7.34
2024-04-18T16:19:39.918Z,7.32
2024-04-18T16:22:07.450Z,7.31
2024-04-18T16:24:50.100Z,7.31
2024-04-18T16:27:17.720Z,7.40
2024-04-18T16:30:00.582Z,7.46
2024-04-18T16:32:45.292Z,7.45
2024-04-18T16:35:12.821Z,7.45
2024-04-18T16:37:41.875Z,7.43
2024-04-18T16:40:15.947Z,7.47
2024-04-18T16:43:00.195Z,7.53
2024-04-18T16:45:31.392Z,7.50
2024-04-18T16:48:00.928Z,7.42
2024-04-18T16:50:29.274Z,7.32
2024-04-18T16:52:56.749Z,7.30
2024-04-18T16:55:42.980Z,7.31
2024-04-18T16:58:17.317Z,7.29
2024-04-18T17:01:00.453Z,7.22
2024-04-18T17:03:28.761Z,7.17
2024-04-18T17:06:03.099Z,7.18
2024-04-18T17:08:30.961Z,7.22
2024-04-18T17:10:58.585Z,7.23
2024-04-18T17:13:44.603Z,7.21
2024-04-18T17:16:12.254Z,7.21
2024-04-18T17:18:48.699Z,7.23
2024-04-18T17:21:16.508Z,7.26
2024-04-18T17:23:44.068Z,7.27
2024-04-18T17:26:11.578Z,7.29
2024-04-18T17:28:39.490Z,7.31
2024-04-18T17:31:06.989Z,7.34
2024-04-18T17:33:34.738Z,7.43
2024-04-18T17:36:02.463Z,7.47
2024-04-18T17:38:48.901Z,7.51
2024-04-18T17:41:29.453Z,7.50
2024-04-18T17:44:16.208Z,7.50
2024-04-18T17:46:56.838Z,7.56
2024-04-18T17:49:24.659Z,7.58
2024-04-18T17:51:52.483Z,7.52
2024-04-18T17:54:22.597Z,7.40
2024-04-18T17:58:05.469Z,7.31
2024-04-18T18:00:32.921Z,7.30
2024-04-18T18:03:00.600Z,7.33
2024-04-18T18:05:40.203Z,7.35
2024-04-18T18:08:26.450Z,7.30
2024-04-18T18:10:54.124Z,7.25
2024-04-18T18:13:21.772Z,7.27
2024-04-18T18:15:49.283Z,7.29
2024-04-18T18:18:17.639Z,7.30
2024-04-18T18:20:45.126Z,7.28
2024-04-18T18:23:15.422Z,7.24
2024-04-18T18:25:44.071Z,7.20
2024-04-18T18:28:11.546Z,7.17
2024-04-18T18:31:01.115Z,7.14
2024-04-18T18:33:28.742Z,7.12
2024-04-18T18:35:56.563Z,7.10
2024-04-18T18:38:24.020Z,7.14
2024-04-18T18:40:51.478Z,7.18
2024-04-18T18:43:24.908Z,7.15
2024-04-18T18:45:53.613Z,7.10
2024-04-18T18:48:21.169Z,7.04
2024-04-18T18:51:05.774Z,7.08
2024-04-18T18:53:33.751Z,7.17
2024-04-18T18:56:01.200Z,7.22
2024-04-18T18:58:50.445Z,7.21
2024-04-18T19:01:17.918Z,7.15
2024-04-18T19:03:47.974Z,7.11
2024-04-18T19:06:28.070Z,7.12
2024-04-18T19:08:59.496Z,7.16
2024-04-18T19:11:39.274Z,7.17
2024-04-18T19:14:06.806Z,7.18
2024-04-18T19:16:34.484Z,7.18
2024-04-18T19:19:02.127Z,7.19
2024-04-18T19:21:29.537Z,7.21
2024-04-18T19:23:58.308Z,7.15
2024-04-18T19:26:27.601Z,7.06
2024-04-18T19:28:55.162Z,7.03
2024-04-18T19:31:22.825Z,7.09
2024-04-18T19:33:50.418Z,7.07
2024-04-18T19:36:18.155Z,6.97
2024-04-18T19:38:46.199Z,6.87
2024-04-18T19:41:26.431Z,6.85
2024-04-18T19:43:54.994Z,6.83
2024-04-18T19:46:23.268Z,6.77
2024-04-18T19:49:10.386Z,6.71
2024-04-18T19:51:57.303Z,6.73
2024-04-18T19:54:24.787Z,6.75
2024-04-18T19:56:52.535Z,6.73
2024-04-18T19:59:19.919Z,6.71
2024-04-18T20:01:48.051Z,6.66
2024-04-18T20:04:15.602Z,6.69
2024-04-18T20:06:43.254Z,6.74
2024-04-18T20:09:10.884Z,6.73
2024-04-18T20:11:38.980Z,6.70
2024-04-18T20:14:06.476Z,6.66
2024-04-18T20:16:35.502Z,6.65
2024-04-18T20:19:13.376Z,6.63
2024-04-18T20:21:42.550Z,6.53
2024-04-18T20:24:10.829Z,6.44
2024-04-18T20:26:58.349Z,6.40
2024-04-18T20:29:44.586Z,6.42
2024-04-18T20:32:25.426Z,6.39
2024-04-18T20:34:53.722Z,6.35
2024-04-18T20:37:21.397Z,6.35
2024-04-18T20:39:49.057Z,6.41
2024-04-18T20:42:16.752Z,6.44
2024-04-18T20:45:03.263Z,6.40
2024-04-18T20:47:30.929Z,6.34
2024-04-18T20:49:58.572Z,6.31
2024-04-18T20:52:25.957Z,6.32
2024-04-18T20:54:54.954Z,6.31
2024-04-18T20:57:25.180Z,6.28
2024-04-18T20:59:54.500Z,6.21
2024-04-18T21:02:23.145Z,6.19
2024-04-18T21:04:52.041Z,6.19
2024-04-18T21:07:19.615Z,6.17
2024-04-18T21:09:47.114Z,6.12
2024-04-18T21:12:14.751Z,6.08
2024-04-18T21:14:42.412Z,6.09
2024-04-18T21:17:09.829Z,6.08
2024-04-18T21:19:37.707Z,6.05
2024-04-18T21:22:08.045Z,6.01
2024-04-18T21:24:35.519Z,6.01
2024-04-18T21:27:03.011Z,6.04
2024-04-18T21:29:30.780Z,6.02
2024-04-18T21:31:58.298Z,5.94
2024-04-18T21:34:26.167Z,5.90
2024-04-18T21:36:53.732Z,5.90
2024-04-18T21:39:21.229Z,5.92
2024-04-18T21:41:49.676Z,5.93
2024-04-18T21:44:19.002Z,5.94
2024-04-18T21:46:46.378Z,5.91
2024-04-18T21:49:14.018Z,5.87
2024-04-18T21:51:42.127Z,5.88
2024-04-18T21:54:09.881Z,5.91
2024-04-18T21:56:37.501Z,5.88
2024-04-18T21:59:05.059Z,5.82
2024-04-18T22:01:42.799Z,5.80
2024-04-18T22:04:11.716Z,5.81
2024-04-18T22:06:40.081Z,5.83
2024-04-18T22:09:07.847Z,5.80
2024-04-18T22:11:35.439Z,5.74
2024-04-18T22:14:03.131Z,5.71
2024-04-18T22:16:30.695Z,5.69
2024-04-18T22:18:58.427Z,5.69
2024-04-18T22:21:36.450Z,5.66
2024-04-18T22:24:08.956Z,5.62
2024-04-18T22:26:36.825Z,5.62
2024-04-18T22:29:05.037Z,5.64
2024-04-18T22:31:32.557Z,5.63
2024-04-18T22:34:00.226Z,5.60
2024-04-18T22:36:28.188Z,5.57
2024-04-18T22:38:56.918Z,5.59
2024-04-18T22:41:26.941Z,5.62
2024-04-18T22:43:54.346Z,5.61
2024-04-18T22:46:21.906Z,5.55
2024-04-18T22:48:49.559Z,5.51
2024-04-18T22:51:17.244Z,5.55
2024-04-18T22:53:44.692Z,5.60
2024-04-18T22:56:12.172Z,5.59
2024-04-18T22:58:39.642Z,5.55
2024-04-18T23:01:09.240Z,5.54
2024-04-18T23:03:36.988Z,5.56
2024-04-18T23:06:14.352Z,5.57
2024-04-18T23:08:43.120Z,5.55
2024-04-18T23:11:11.049Z,5.51
2024-04-18T23:13:39.224Z,5.48
2024-04-18T23:16:07.131Z,5.47
2024-04-18T23:18:35.428Z,5.45
2024-04-18T23:21:03.140Z,5.41
2024-04-18T23:23:33.591Z,5.40
2024-04-18T23:26:01.140Z,5.38
2024-04-18T23:28:29.292Z,5.35
2024-04-18T23:30:56.859Z,5.35
2024-04-18T23:33:24.592Z,5.36
2024-04-18T23:35:52.392Z,5.41
2024-04-18T23:38:22.101Z,5.41
2024-04-18T23:40:50.280Z,5.35
2024-04-18T23:43:19.003Z,5.31
2024-04-18T23:45:46.574Z,5.32
2024-04-18T23:48:14.373Z,5.32
2024-04-18T23:50:43.433Z,5.26
2024-04-18T23:53:11.045Z,5.21
2024-04-18T23:55:39.865Z,5.21
2024-04-18T23:58:07.392Z,5.23
